Time;durP1;ratioP1;P1;durP2;ratioP2;P2;SDS_P1;SDS_P2;PMS_P1;PMS_P2;Temp;Humidity;BMP_temperature;BMP_pressure;BME280_temperature;BME280_humidity;BME280_pressure;Samples;Min_cycle;Max_cycle;Signal;HPM_P1;HPM_P2
2021/06/12 00:06:44;;;;;;;8.7;7.3;;;;;;;12.86;100;98595.25;;;;
2021/06/12 00:16:43;;;;;;;10.7;8.3;;;;;;;12.92;100;98586.64;;;;
2021/06/12 00:26:42;;;;;;;11.2;8.9;;;;;;;13.22;100;98586.75;;;;
2021/06/12 00:36:41;;;;;;;11;8.7;;;;;;;13.29;100;98581.63;;;;
2021/06/12 00:46:40;;;;;;;11.2;9.5;;;;;;;13.36;100;98571.86;;;;
2021/06/12 00:56:39;;;;;;;10.1;8.4;;;;;;;13.31;100;98576.67;;;;
2021/06/12 01:06:38;;;;;;;11.2;8.2;;;;;;;13.41;100;98576.3;;;;
2021/06/12 01:16:38;;;;;;;12.6;9.3;;;;;;;13.34;100;98576.02;;;;
2021/06/12 01:26:36;;;;;;;9.2;8;;;;;;;13.3;100;98577.78;;;;
2021/06/12 01:36:35;;;;;;;10.8;8.3;;;;;;;13.2;100;98583.56;;;;
2021/06/12 01:46:34;;;;;;;13;10;;;;;;;13.01;100;98568.49;;;;
2021/06/12 01:56:33;;;;;;;13.9;9.3;;;;;;;12.91;100;98560.7;;;;
2021/06/12 02:06:32;;;;;;;12.8;10.7;;;;;;;12.87;100;98557.08;;;;
2021/06/12 02:16:31;;;;;;;11.4;8.8;;;;;;;12.88;100;98565.96;;;;
2021/06/12 02:26:30;;;;;;;11.8;10.6;;;;;;;12.94;100;98551.17;;;;
2021/06/12 02:36:29;;;;;;;9.9;8.2;;;;;;;12.98;100;98552.11;;;;
2021/06/12 02:46:29;;;;;;;9.7;7.8;;;;;;;12.91;100;98566.11;;;;
2021/06/12 02:56:27;;;;;;;11.3;8.5;;;;;;;12.98;100;98558.3;;;;
2021/06/12 03:06:27;;;;;;;11;7.9;;;;;;;12.92;100;98554.19;;;;
2021/06/12 03:16:26;;;;;;;9.2;7.6;;;;;;;13;100;98555.28;;;;
2021/06/12 03:26:25;;;;;;;8;7;;;;;;;13.19;100;98554.93;;;;
2021/06/12 03:36:24;;;;;;;9.5;7.8;;;;;;;13.44;100;98576.45;;;;
2021/06/12 03:46:23;;;;;;;11.8;8.3;;;;;;;13.71;100;98577.89;;;;
2021/06/12 03:56:22;;;;;;;12.9;8.4;;;;;;;13.94;100;98589.23;;;;
2021/06/12 04:06:21;;;;;;;13.1;7.7;;;;;;;14.29;100;98593.28;;;;
2021/06/12 04:16:20;;;;;;;10.9;9.8;;;;;;;14.52;100;98604.59;;;;
2021/06/12 04:26:19;;;;;;;11;8.6;;;;;;;14.92;100;98596.72;;;;
2021/06/12 04:36:19;;;;;;;13.7;10.7;;;;;;;15.19;100;98595.3;;;;
2021/06/12 04:46:18;;;;;;;19.1;10.4;;;;;;;15.7;100;98593.88;;;;
2021/06/12 04:56:17;;;;;;;14.8;11.1;;;;;;;15.99;100;98597.15;;;;
2021/06/12 05:06:17;;;;;;;13;9.4;;;;;;;16.33;100;98587.66;;;;
2021/06/12 05:16:16;;;;;;;13.1;10.4;;;;;;;16.55;100;98584.45;;;;
2021/06/12 05:26:17;;;;;;;12.1;8.9;;;;;;;17.17;100;98577.53;;;;
2021/06/12 05:36:16;;;;;;;11;8.4;;;;;;;17.59;100;98575.88;;;;
2021/06/12 05:46:15;;;;;;;18.8;12.9;;;;;;;17.94;100;98566.93;;;;
2021/06/12 05:56:14;;;;;;;19.3;12.3;;;;;;;18.31;100;98564.59;;;;
2021/06/12 06:06:14;;;;;;;11.7;10.2;;;;;;;18.66;100;98570;;;;
2021/06/12 06:16:14;;;;;;;15.4;10.4;;;;;;;18.78;100;98567.89;;;;
2021/06/12 06:26:14;;;;;;;15.6;10;;;;;;;19.06;100;98554.75;;;;
2021/06/12 06:36:14;;;;;;;13.6;9.5;;;;;;;19.31;100;98552.45;;;;
2021/06/12 06:46:13;;;;;;;14.7;9.3;;;;;;;19.58;100;98564.22;;;;
2021/06/12 06:56:13;;;;;;;11.5;7.9;;;;;;;20.22;100;98559.67;;;;
2021/06/12 07:06:13;;;;;;;12.9;8.8;;;;;;;20.37;100;98554.05;;;;
2021/06/12 07:16:13;;;;;;;12.4;7.7;;;;;;;20.68;98.55957;98547.36;;;;
2021/06/12 07:26:13;;;;;;;10.4;7.3;;;;;;;20.85;97.8252;98541.28;;;;
2021/06/12 07:36:14;;;;;;;11.3;6.9;;;;;;;21.22;97.00879;98537.72;;;;
2021/06/12 07:46:14;;;;;;;11.4;5.9;;;;;;;21.44;95.50684;98523.81;;;;
2021/06/12 07:56:14;;;;;;;7.4;4.7;;;;;;;21.67;94.23047;98518.08;;;;
2021/06/12 08:06:14;;;;;;;7.1;4;;;;;;;22.16;86.66113;98527.79;;;;
2021/06/12 08:16:14;;;;;;;7.9;4.4;;;;;;;22.52;87.22656;98546;;;;
2021/06/12 08:26:14;;;;;;;9.9;4.2;;;;;;;22.6;83.53125;98536.58;;;;
2021/06/12 08:36:15;;;;;;;5.6;3.2;;;;;;;22.85;82.64941;98525.69;;;;
2021/06/12 08:46:15;;;;;;;9.6;5.1;;;;;;;23.31;86.32715;98518.27;;;;
2021/06/12 08:56:16;;;;;;;7.8;4.3;;;;;;;23.44;85.4707;98518.68;;;;
2021/06/12 09:06:16;;;;;;;6.1;3.6;;;;;;;23.48;82.33496;98516.72;;;;
2021/06/12 09:16:16;;;;;;;5.7;4.1;;;;;;;23.23;78.9834;98504.91;;;;
2021/06/12 09:26:17;;;;;;;4.8;3.6;;;;;;;23.78;75.54785;98497.79;;;;
2021/06/12 09:36:17;;;;;;;4.7;2.8;;;;;;;24.25;70.5918;98492.95;;;;
2021/06/12 09:46:18;;;;;;;5.5;2.9;;;;;;;25.17;73.32715;98486.88;;;;
2021/06/12 09:56:19;;;;;;;5.9;4;;;;;;;25.7;69.66016;98478.92;;;;
2021/06/12 10:06:21;;;;;;;7.5;2.6;;;;;;;25.72;66.59668;98462.72;;;;
2021/06/12 10:16:20;;;;;;;6.5;2.6;;;;;;;26.2;66.26758;98459.05;;;;
2021/06/12 10:26:23;;;;;;;6.1;2.6;;;;;;;25.91;65.37012;98436.48;;;;
2021/06/12 10:36:22;;;;;;;4.6;2.8;;;;;;;26.29;64.48535;98438;;;;
2021/06/12 10:46:23;;;;;;;5.4;3.6;;;;;;;26.3;68.18164;98422.2;;;;
2021/06/12 10:56:24;;;;;;;4.8;2.5;;;;;;;26.8;65.23926;98397.34;;;;
2021/06/12 11:06:31;;;;;;;5.7;3.6;;;;;;;27.19;61.33008;98388.41;;;;
2021/06/12 11:16:25;;;;;;;5.2;3.3;;;;;;;26.85;61.21484;98391.38;;;;
2021/06/12 11:26:26;;;;;;;7.3;4.2;;;;;;;27.24;62.28027;98372.13;;;;
2021/06/12 11:36:27;;;;;;;4.5;2.9;;;;;;;27.36;65.76758;98362.39;;;;
2021/06/12 11:46:35;;;;;;;6;4;;;;;;;27.34;60.30371;98346.23;;;;
2021/06/12 11:56:35;;;;;;;6;3.3;;;;;;;26.19;62.76855;98330.39;;;;
2021/06/12 12:06:32;;;;;;;5.5;3.9;;;;;;;26.97;63.43164;98303.03;;;;
2021/06/12 12:16:31;;;;;;;4.9;3.7;;;;;;;26.82;62.41113;98279.63;;;;
2021/06/12 12:26:32;;;;;;;5.9;3.8;;;;;;;26.81;63.44336;98253.13;;;;
2021/06/12 12:36:33;;;;;;;4.4;3.3;;;;;;;27.41;59.86426;98240.12;;;;
2021/06/12 12:46:36;;;;;;;6.6;3.7;;;;;;;27.63;59.98828;98213.54;;;;
2021/06/12 12:56:43;;;;;;;6.3;3.2;;;;;;;27.81;61.00293;98205.61;;;;
2021/06/12 13:06:37;;;;;;;4.6;2.8;;;;;;;27.72;59.69531;98219.28;;;;
2021/06/12 13:16:37;;;;;;;5.6;3.3;;;;;;;27.42;58.16895;98211.23;;;;
2021/06/12 13:26:40;;;;;;;5;3.2;;;;;;;28;57.44141;98207.55;;;;
2021/06/12 13:36:39;;;;;;;7;3;;;;;;;28.18;55.88184;98196.05;;;;
2021/06/12 13:46:40;;;;;;;6.5;4.6;;;;;;;27.29;58.37695;98186.19;;;;
2021/06/12 13:56:41;;;;;;;6.7;4.4;;;;;;;26.4;60.43652;98175.31;;;;
2021/06/12 14:06:42;;;;;;;5.2;4;;;;;;;25.78;61.72754;98175.94;;;;
2021/06/12 14:16:42;;;;;;;6.8;3.3;;;;;;;25.41;64.87598;98187.87;;;;
2021/06/12 14:26:45;;;;;;;9.1;4.6;;;;;;;24.82;66.45215;98185.44;;;;
2021/06/12 14:36:44;;;;;;;6.7;3.4;;;;;;;22.55;85.69629;98210.89;;;;
2021/06/12 14:46:44;;;;;;;9.9;3.3;;;;;;;22.19;91.95215;98203.07;;;;
2021/06/12 14:56:44;;;;;;;6.2;4.4;;;;;;;22.01;93.11523;98189.35;;;;
2021/06/12 15:06:44;;;;;;;7.8;4.3;;;;;;;22.12;92.05371;98164.64;;;;
2021/06/12 15:16:45;;;;;;;9.9;5.3;;;;;;;21.61;92.88184;98151.3;;;;
2021/06/12 15:26:45;;;;;;;9.7;5.7;;;;;;;21.66;93.82617;98148.94;;;;
2021/06/12 15:36:45;;;;;;;9.5;5.5;;;;;;;21.66;93.56152;98118.02;;;;
2021/06/12 15:46:45;;;;;;;8.2;5.8;;;;;;;22.28;92.74414;98107.38;;;;
2021/06/12 15:56:45;;;;;;;8.3;5.1;;;;;;;22.71;89.37891;98105.28;;;;
2021/06/12 16:06:46;;;;;;;15.8;5.9;;;;;;;22.87;87.61816;98098.14;;;;
2021/06/12 16:16:46;;;;;;;6.9;5.7;;;;;;;22.46;89.41016;98097.11;;;;
2021/06/12 16:26:46;;;;;;;7.8;4.6;;;;;;;22.62;88.56543;98091.97;;;;
2021/06/12 16:36:47;;;;;;;7.3;4.9;;;;;;;22.2;89.41797;98079.16;;;;
2021/06/12 16:46:47;;;;;;;9.3;5.5;;;;;;;21.89;90.94727;98058.81;;;;
2021/06/12 16:57:09;;;;;;;7.3;5.6;;;;;;;21.83;91.48828;98046.66;;;;
2021/06/12 17:06:47;;;;;;;8.3;6;;;;;;;21.73;92.60645;98049.44;;;;
2021/06/12 17:16:47;;;;;;;9.8;6.9;;;;;;;21.52;94.17773;98045.52;;;;
2021/06/12 17:26:47;;;;;;;8;6.1;;;;;;;21.33;97.24121;98059.63;;;;
2021/06/12 17:36:49;;;;;;;9.2;7.9;;;;;;;21.15;98.29199;98052.55;;;;
2021/06/12 17:46:49;;;;;;;11.3;6.3;;;;;;;21.05;99.38574;98060.35;;;;
2021/06/12 17:56:48;;;;;;;8.2;6.2;;;;;;;20.52;100;98062.14;;;;
2021/06/12 18:06:48;;;;;;;6.7;5.2;;;;;;;19.62;100;98061.22;;;;
2021/06/12 18:16:48;;;;;;;8.8;5.6;;;;;;;19.1;100;98074.81;;;;
2021/06/12 18:26:47;;;;;;;8.9;6.5;;;;;;;18.54;100;98110.46;;;;
2021/06/12 18:36:47;;;;;;;13.7;9.7;;;;;;;17.91;100;98142.3;;;;
2021/06/12 18:46:47;;;;;;;4.2;2.2;;;;;;;17.06;100;98160.64;;;;
2021/06/12 18:56:47;;;;;;;4.9;2.4;;;;;;;16.72;100;98171.61;;;;
2021/06/12 19:06:46;;;;;;;6.2;3.9;;;;;;;16.67;100;98159.07;;;;
2021/06/12 19:16:46;;;;;;;8.6;6.3;;;;;;;16.68;100;98163.38;;;;
2021/06/12 19:26:45;;;;;;;8.3;6.4;;;;;;;16.78;100;98184.58;;;;
2021/06/12 19:36:57;;;;;;;8.7;5;;;;;;;16.85;100;98200.27;;;;
2021/06/12 19:46:44;;;;;;;7.7;6.3;;;;;;;16.8;100;98228.54;;;;
2021/06/12 19:56:43;;;;;;;9.4;7.7;;;;;;;16.78;100;98217.23;;;;
2021/06/12 20:06:44;;;;;;;7.9;5.1;;;;;;;16.77;100;98212.93;;;;
2021/06/12 20:16:42;;;;;;;13.9;6.4;;;;;;;16.46;100;98227.39;;;;
2021/06/12 20:26:42;;;;;;;11.6;5.8;;;;;;;16.28;100;98233.58;;;;
2021/06/12 20:36:41;;;;;;;7.9;5.3;;;;;;;16.29;100;98235.93;;;;
2021/06/12 20:46:40;;;;;;;5.9;3.6;;;;;;;16.07;100;98252.86;;;;
2021/06/12 20:56:40;;;;;;;6.5;3.5;;;;;;;15.79;100;98282.83;;;;
2021/06/12 21:06:39;;;;;;;5.9;3.8;;;;;;;15.7;100;98282.22;;;;
2021/06/12 21:16:38;;;;;;;9.4;5.3;;;;;;;15.6;100;98321.55;;;;
2021/06/12 21:26:38;;;;;;;8.8;4.8;;;;;;;15.42;100;98319.44;;;;
2021/06/12 21:36:37;;;;;;;7.9;4.9;;;;;;;15.27;100;98350.05;;;;
2021/06/12 21:46:38;;;;;;;7.4;3.8;;;;;;;14.94;100;98342.08;;;;
2021/06/12 21:56:36;;;;;;;6.7;4.4;;;;;;;14.94;100;98363.78;;;;
2021/06/12 22:06:35;;;;;;;8.1;5.7;;;;;;;14.84;100;98370.47;;;;
2021/06/12 22:16:34;;;;;;;5.6;3.2;;;;;;;14.59;100;98387.87;;;;
2021/06/12 22:26:33;;;;;;;5.8;3.9;;;;;;;14.26;100;98384.42;;;;
2021/06/12 22:36:33;;;;;;;8.4;4.6;;;;;;;13.99;100;98410.98;;;;
2021/06/12 22:46:32;;;;;;;10.5;4.7;;;;;;;13.8;100;98418.83;;;;
2021/06/12 22:56:32;;;;;;;7.7;4.5;;;;;;;13.6;100;98431.27;;;;
2021/06/12 23:06:33;;;;;;;8.4;5.3;;;;;;;13.55;100;98457.73;;;;
2021/06/12 23:16:29;;;;;;;8.9;6.3;;;;;;;13.41;100;98444.45;;;;
2021/06/12 23:26:28;;;;;;;8.4;5.5;;;;;;;13.28;100;98439.29;;;;
2021/06/12 23:36:27;;;;;;;7.7;5.6;;;;;;;13.15;100;98459.27;;;;
2021/06/12 23:46:26;;;;;;;9.7;6;;;;;;;13.03;100;98455.32;;;;
2021/06/12 23:56:25;;;;;;;12.2;6.6;;;;;;;12.96;100;98463.15;;;;
